Time;durP1;ratioP1;P1;durP2;ratioP2;P2;SDS_P1;SDS_P2;PMS_P1;PMS_P2;Temp;Humidity;BMP_temperature;BMP_pressure;BME280_temperature;BME280_humidity;BME280_pressure;Samples;Min_cycle;Max_cycle;Signal;HPM_P1;HPM_P2
2024/03/04 00:01:50;;;;;;;;;;;;;;;6.96;92.81;95585.70;108738;1289;22425;-85
2024/03/04 00:04:16;;;;;;;;;;;;;;;6.94;93.19;95587.00;108530;1293;22449;-85
2024/03/04 00:06:44;;;;;;;;;;;;;;;6.90;93.21;95582.69;108353;1297;22410;-85
2024/03/04 00:09:10;;;;;;;;;;;;;;;6.88;93.41;95584.27;108499;1298;22438;-86
2024/03/04 00:11:38;;;;;;;;;;;;;;;6.89;93.64;95587.02;108476;1295;22452;-85
2024/03/04 00:14:04;;;;;;;;;;;;;;;6.89;93.61;95583.28;108541;1297;22447;-85
2024/03/04 00:16:31;;;;;;;;;;;;;;;6.84;93.58;95586.40;108465;1293;23136;-84
2024/03/04 00:19:02;;;;;;;;;;;;;;;6.81;93.66;95586.81;108529;1296;23617;-85
2024/03/04 00:21:29;;;;;;;;;;;;;;;6.80;93.73;95579.16;108500;1297;22446;-84
2024/03/04 00:23:56;;;;;;;;;;;;;;;6.79;93.83;95578.13;108562;1297;22437;-85
2024/03/04 00:26:23;;;;;;;;;;;;;;;6.78;93.88;95573.67;108513;1297;22456;-85
2024/03/04 00:28:49;;;;;;;;;;;;;;;6.76;94.24;95573.77;108532;1298;22899;-85
2024/03/04 00:31:16;;;;;;;;;;;;;;;6.73;94.20;95570.19;108651;1297;22475;-84
2024/03/04 00:33:42;;;;;;;;;;;;;;;6.67;94.37;95577.05;108739;1295;22456;-85
2024/03/04 00:36:10;;;;;;;;;;;;;;;6.64;94.61;95566.36;108644;1292;22463;-84
2024/03/04 00:38:37;;;;;;;;;;;;;;;6.67;94.54;95571.13;108730;1291;23035;-84
2024/03/04 00:41:04;;;;;;;;;;;;;;;6.70;94.80;95567.77;108678;1283;22965;-88
2024/03/04 00:43:30;;;;;;;;;;;;;;;6.72;94.59;95570.34;108666;1292;23094;-88
2024/03/04 00:45:57;;;;;;;;;;;;;;;6.69;94.43;95569.02;108553;1297;23100;-88
2024/03/04 00:48:23;;;;;;;;;;;;;;;6.62;94.59;95565.58;107249;1298;22804;-88
2024/03/04 00:50:50;;;;;;;;;;;;;;;6.60;94.79;95567.21;107180;1296;22998;-87
2024/03/04 00:53:17;;;;;;;;;;;;;;;6.55;95.22;95567.55;107229;1292;23749;-87
2024/03/04 00:55:43;;;;;;;;;;;;;;;6.50;95.26;95571.80;107282;1298;22546;-87
2024/03/04 00:58:10;;;;;;;;;;;;;;;6.48;95.51;95569.50;107268;1298;22524;-87
2024/03/04 01:00:37;;;;;;;;;;;;;;;6.47;95.51;95568.69;107037;1297;23164;-87
2024/03/04 01:03:03;;;;;;;;;;;;;;;6.49;95.75;95570.86;107102;1295;22552;-88
2024/03/04 01:05:31;;;;;;;;;;;;;;;6.46;95.94;95571.21;107361;1297;22552;-88
2024/03/04 01:07:57;;;;;;;;;;;;;;;6.57;96.37;95564.66;107438;1297;24256;-88
2024/03/04 01:10:23;;;;;;;;;;;;;;;6.68;96.25;95566.63;107272;1297;22471;-88
2024/03/04 01:12:50;;;;;;;;;;;;;;;6.63;95.81;95559.76;107100;1298;24254;-87
2024/03/04 01:15:17;;;;;;;;;;;;;;;6.59;96.08;95563.00;107105;1298;22596;-87
2024/03/04 01:17:46;;;;;;;;;;;;;;;6.60;96.02;95562.05;107274;1297;22457;-87
2024/03/04 01:20:14;;;;;;;;;;;;;;;6.63;96.20;95565.12;107204;1296;22518;-88
2024/03/04 01:22:41;;;;;;;;;;;;;;;6.60;96.03;95563.96;107283;1297;24929;-87
2024/03/04 01:25:09;;;;;;;;;;;;;;;6.57;95.97;95569.21;107163;1298;22519;-87
2024/03/04 01:27:36;;;;;;;;;;;;;;;6.52;95.98;95568.95;107187;1292;22535;-88
2024/03/04 01:30:03;;;;;;;;;;;;;;;6.52;96.24;95568.30;107316;1294;22533;-87
2024/03/04 01:32:30;;;;;;;;;;;;;;;6.53;96.22;95568.91;107268;1293;22534;-88
2024/03/04 01:34:56;;;;;;;;;;;;;;;6.52;96.30;95568.84;107172;1297;22479;-84
2024/03/04 01:37:23;;;;;;;;;;;;;;;6.60;96.82;95566.47;107376;1290;22609;-84
2024/03/04 01:39:49;;;;;;;;;;;;;;;6.70;96.83;95563.79;107290;1295;22614;-84
2024/03/04 01:42:17;;;;;;;;;;;;;;;6.75;96.50;95568.90;107351;1292;22531;-84
2024/03/04 01:44:43;;;;;;;;;;;;;;;6.73;96.41;95573.48;107329;1280;22478;-84
2024/03/04 01:47:14;;;;;;;;;;;;;;;6.70;96.32;95569.03;107316;1293;22555;-84
2024/03/04 01:49:40;;;;;;;;;;;;;;;6.63;96.17;95568.24;107367;1298;23547;-84
2024/03/04 01:52:07;;;;;;;;;;;;;;;6.73;96.51;95571.09;107293;1296;22521;-84
2024/03/04 01:54:34;;;;;;;;;;;;;;;6.71;96.10;95570.48;107305;1280;22561;-84
2024/03/04 01:57:01;;;;;;;;;;;;;;;6.74;96.32;95570.20;107314;1298;22549;-84
2024/03/04 01:59:27;;;;;;;;;;;;;;;6.85;96.46;95570.16;107364;1293;22586;-84
2024/03/04 02:01:53;;;;;;;;;;;;;;;6.93;96.21;95564.73;107293;1298;22570;-84
2024/03/04 02:04:20;;;;;;;;;;;;;;;7.01;96.20;95563.95;107150;1282;25417;-84
2024/03/04 02:06:46;;;;;;;;;;;;;;;7.00;95.74;95562.38;107196;1298;22511;-84
2024/03/04 02:09:15;;;;;;;;;;;;;;;7.00;95.80;95564.25;107358;1293;23293;-84
2024/03/04 02:11:43;;;;;;;;;;;;;;;7.02;95.42;95565.42;107350;1287;22630;-84
2024/03/04 02:14:11;;;;;;;;;;;;;;;7.11;95.62;95564.13;107381;1298;22510;-84
2024/03/04 02:16:37;;;;;;;;;;;;;;;7.12;95.26;95566.25;107355;1283;22550;-84
2024/03/04 02:19:06;;;;;;;;;;;;;;;7.07;94.98;95568.26;107202;1292;22611;-85
2024/03/04 02:21:33;;;;;;;;;;;;;;;7.01;94.95;95571.40;107283;1292;22510;-84
2024/03/04 02:23:59;;;;;;;;;;;;;;;6.92;95.07;95572.83;108287;1292;22501;-84
2024/03/04 02:26:26;;;;;;;;;;;;;;;6.83;95.41;95574.49;108613;1292;22422;-83
2024/03/04 02:28:53;;;;;;;;;;;;;;;6.82;95.62;95574.98;108451;1285;22417;-83
2024/03/04 02:31:19;;;;;;;;;;;;;;;6.81;95.82;95573.77;107215;1295;22530;-82
2024/03/04 02:33:46;;;;;;;;;;;;;;;6.74;95.66;95574.25;107112;1295;22491;-84
2024/03/04 02:36:12;;;;;;;;;;;;;;;6.65;95.82;95576.62;107254;1295;22577;-84
2024/03/04 02:38:39;;;;;;;;;;;;;;;6.61;96.10;95573.03;107264;1298;22637;-84
2024/03/04 02:41:05;;;;;;;;;;;;;;;6.57;96.13;95572.70;107141;1292;22514;-84
2024/03/04 02:43:32;;;;;;;;;;;;;;;6.60;96.54;95569.73;107268;1298;22735;-84
2024/03/04 02:45:58;;;;;;;;;;;;;;;6.69;96.57;95575.86;107334;1298;22533;-84
2024/03/04 02:48:26;;;;;;;;;;;;;;;6.67;96.45;95569.67;107274;1296;22517;-84
2024/03/04 02:50:52;;;;;;;;;;;;;;;6.63;96.34;95575.76;108636;1298;22458;-84
2024/03/04 02:53:19;;;;;;;;;;;;;;;6.57;96.23;95575.83;108683;1298;22429;-83
2024/03/04 02:55:46;;;;;;;;;;;;;;;6.54;96.39;95578.52;108596;1292;22518;-83
2024/03/04 02:58:12;;;;;;;;;;;;;;;6.60;96.48;95580.45;107300;1297;22540;-82
2024/03/04 03:00:38;;;;;;;;;;;;;;;6.53;96.15;95579.13;107308;1293;22538;-84
2024/03/04 03:03:05;;;;;;;;;;;;;;;6.44;96.14;95575.44;107226;1298;25935;-84
2024/03/04 03:05:32;;;;;;;;;;;;;;;6.35;96.51;95570.96;107157;1298;22917;-84
2024/03/04 03:07:58;;;;;;;;;;;;;;;6.30;96.86;95569.73;107237;1280;22542;-84
2024/03/04 03:10:24;;;;;;;;;;;;;;;6.30;97.11;95567.20;107454;1279;22535;-84
2024/03/04 03:12:51;;;;;;;;;;;;;;;6.27;97.24;95570.49;107351;1298;22578;-84
2024/03/04 03:15:17;;;;;;;;;;;;;;;6.25;97.61;95572.09;108608;1283;22515;-84
2024/03/04 03:17:44;;;;;;;;;;;;;;;6.23;97.82;95572.30;108697;1298;22455;-82
2024/03/04 03:20:16;;;;;;;;;;;;;;;6.35;98.69;95570.14;108586;1297;22497;-83
2024/03/04 03:22:46;;;;;;;;;;;;;;;6.38;97.66;95575.83;108707;1295;23132;-82
2024/03/04 03:25:12;;;;;;;;;;;;;;;6.32;97.68;95571.79;108555;1297;23238;-83
2024/03/04 03:27:39;;;;;;;;;;;;;;;6.26;97.63;95570.80;108667;1290;23247;-83
2024/03/04 03:30:06;;;;;;;;;;;;;;;6.16;97.64;95568.45;108543;1291;22463;-82
2024/03/04 03:32:36;;;;;;;;;;;;;;;6.10;98.06;95569.89;108488;1292;23229;-83
2024/03/04 03:35:03;;;;;;;;;;;;;;;6.05;98.06;95565.81;108412;1298;22432;-83
2024/03/04 03:37:29;;;;;;;;;;;;;;;6.01;98.21;95563.26;108608;1289;22462;-82
2024/03/04 03:39:56;;;;;;;;;;;;;;;5.97;98.40;95561.11;108586;1292;22449;-83
2024/03/04 03:42:22;;;;;;;;;;;;;;;5.95;98.65;95558.31;108678;1298;22497;-86
2024/03/04 03:44:49;;;;;;;;;;;;;;;5.94;99.07;95558.28;108415;1298;22464;-86
2024/03/04 03:47:16;;;;;;;;;;;;;;;5.92;99.18;95554.37;108343;1295;22418;-87
2024/03/04 03:49:42;;;;;;;;;;;;;;;5.90;99.09;95552.52;108700;1295;22451;-86
2024/03/04 03:52:09;;;;;;;;;;;;;;;5.89;99.24;95553.63;108521;1281;22489;-86
2024/03/04 03:54:35;;;;;;;;;;;;;;;5.89;99.36;95554.34;108546;1296;22449;-86
2024/03/04 03:57:02;;;;;;;;;;;;;;;5.88;99.31;95551.93;108311;1292;22580;-86
2024/03/04 03:59:28;;;;;;;;;;;;;;;5.85;99.41;95553.92;107289;1292;22642;-88
2024/03/04 04:01:56;;;;;;;;;;;;;;;5.82;99.47;95556.86;108525;1289;22502;-86
2024/03/04 04:04:25;;;;;;;;;;;;;;;5.81;99.68;95554.18;108560;1290;22468;-87
2024/03/04 04:06:52;;;;;;;;;;;;;;;5.78;99.80;95555.91;108600;1289;22481;-86
2024/03/04 04:09:18;;;;;;;;;;;;;;;5.77;99.87;95556.73;108707;1292;22441;-86
2024/03/04 04:11:44;;;;;;;;;;;;;;;5.76;100.00;95555.80;108516;1292;22480;-87
2024/03/04 04:14:11;;;;;;;;;;;;;;;5.73;99.95;95558.17;108490;1285;22450;-86
2024/03/04 04:16:38;;;;;;;;;;;;;;;5.73;99.99;95557.28;108589;1292;22464;-87
2024/03/04 04:19:06;;;;;;;;;;;;;;;5.73;100.00;95559.89;107717;1292;24202;-86
2024/03/04 04:21:32;;;;;;;;;;;;;;;5.74;100.00;95561.84;107146;1294;25446;-88
2024/03/04 04:23:59;;;;;;;;;;;;;;;5.73;100.00;95561.91;107263;1292;22651;-88
2024/03/04 04:26:26;;;;;;;;;;;;;;;5.71;100.00;95563.77;107182;1297;22574;-87
2024/03/04 04:28:52;;;;;;;;;;;;;;;5.67;100.00;95565.16;108450;1286;22544;-88
2024/03/04 04:31:22;;;;;;;;;;;;;;;5.63;100.00;95566.45;108488;1290;22512;-86
2024/03/04 04:33:49;;;;;;;;;;;;;;;5.57;100.00;95566.30;108550;1292;22467;-86
2024/03/04 04:36:16;;;;;;;;;;;;;;;5.57;100.00;95567.89;108491;1292;23050;-86
2024/03/04 04:38:44;;;;;;;;;;;;;;;5.58;100.00;95567.63;108641;1290;23061;-86
2024/03/04 04:41:11;;;;;;;;;;;;;;;5.58;100.00;95572.30;108570;1292;22559;-86
2024/03/04 04:43:38;;;;;;;;;;;;;;;5.58;100.00;95570.36;107274;1297;23208;-87
2024/03/04 04:46:05;;;;;;;;;;;;;;;5.57;100.00;95564.27;107292;1295;22508;-87
2024/03/04 04:48:32;;;;;;;;;;;;;;;5.56;100.00;95566.13;107290;1295;23884;-87
2024/03/04 04:50:58;;;;;;;;;;;;;;;5.55;100.00;95564.71;107216;1297;23187;-88
2024/03/04 04:53:25;;;;;;;;;;;;;;;5.54;100.00;95560.85;107189;1293;22612;-87
2024/03/04 04:55:51;;;;;;;;;;;;;;;5.52;100.00;95562.14;107347;1293;22520;-89
2024/03/04 04:58:18;;;;;;;;;;;;;;;5.48;100.00;95559.26;107240;1293;22521;-87
2024/03/04 05:00:44;;;;;;;;;;;;;;;5.44;100.00;95559.35;107278;1291;22574;-87
2024/03/04 05:03:11;;;;;;;;;;;;;;;5.43;100.00;95556.67;107245;1290;22557;-87
2024/03/04 05:05:37;;;;;;;;;;;;;;;5.44;100.00;95559.16;107164;1297;25376;-87
2024/03/04 05:08:05;;;;;;;;;;;;;;;5.46;100.00;95561.02;107210;1290;22557;-88
2024/03/04 05:10:31;;;;;;;;;;;;;;;5.46;100.00;95565.36;107286;1298;23324;-89
2024/03/04 05:12:59;;;;;;;;;;;;;;;5.43;100.00;95563.77;107230;1295;24125;-88
2024/03/04 05:15:25;;;;;;;;;;;;;;;5.41;100.00;95564.11;107372;1292;25948;-88
2024/03/04 05:17:52;;;;;;;;;;;;;;;5.41;100.00;95568.42;107789;1290;22475;-87
2024/03/04 05:20:21;;;;;;;;;;;;;;;5.43;100.00;95573.60;107172;1296;23827;-88
2024/03/04 05:22:47;;;;;;;;;;;;;;;5.43;100.00;95576.14;107232;1291;23626;-88
2024/03/04 05:25:14;;;;;;;;;;;;;;;5.42;100.00;95580.65;107162;1296;22535;-88
2024/03/04 05:27:40;;;;;;;;;;;;;;;5.41;100.00;95587.20;107214;1292;22531;-88
2024/03/04 05:30:10;;;;;;;;;;;;;;;5.41;100.00;95586.46;107467;1297;25396;-87
2024/03/04 05:32:37;;;;;;;;;;;;;;;5.41;100.00;95585.15;107246;1298;22643;-87
2024/03/04 05:35:07;;;;;;;;;;;;;;;5.40;100.00;95589.65;107196;1297;25348;-88
2024/03/04 05:37:33;;;;;;;;;;;;;;;5.41;100.00;95587.88;107219;1297;23192;-87
2024/03/04 05:40:00;;;;;;;;;;;;;;;5.41;100.00;95586.27;107309;1298;22450;-87
2024/03/04 05:42:26;;;;;;;;;;;;;;;5.41;100.00;95582.66;107215;1297;24414;-88
2024/03/04 05:44:53;;;;;;;;;;;;;;;5.41;100.00;95582.37;107159;1297;22565;-88
2024/03/04 05:47:19;;;;;;;;;;;;;;;5.41;100.00;95583.76;107315;1295;22582;-87
2024/03/04 05:49:46;;;;;;;;;;;;;;;5.41;100.00;95581.83;107241;1297;23367;-88
2024/03/04 05:52:13;;;;;;;;;;;;;;;5.43;100.00;95582.45;107309;1297;22535;-88
2024/03/04 05:54:39;;;;;;;;;;;;;;;5.47;100.00;95582.27;107340;1292;22545;-87
2024/03/04 05:57:06;;;;;;;;;;;;;;;5.50;100.00;95581.89;107245;1292;22514;-88
2024/03/04 05:59:32;;;;;;;;;;;;;;;5.58;100.00;95580.02;107198;1298;22565;-88
2024/03/04 06:01:59;;;;;;;;;;;;;;;5.68;100.00;95583.11;107236;1298;24390;-88
2024/03/04 06:04:25;;;;;;;;;;;;;;;5.76;100.00;95588.25;107312;1292;22475;-87
2024/03/04 06:06:52;;;;;;;;;;;;;;;5.85;100.00;95585.67;107277;1291;22518;-88
2024/03/04 06:09:18;;;;;;;;;;;;;;;6.01;100.00;95582.92;107373;1298;22565;-87
2024/03/04 06:11:46;;;;;;;;;;;;;;;6.13;100.00;95580.89;107168;1292;22549;-87
2024/03/04 06:14:12;;;;;;;;;;;;;;;6.17;100.00;95589.88;107329;1292;24256;-87
2024/03/04 06:16:39;;;;;;;;;;;;;;;6.18;100.00;95590.59;107206;1295;22709;-87
2024/03/04 06:19:10;;;;;;;;;;;;;;;6.27;100.00;95587.84;107290;1298;24199;-88
2024/03/04 06:21:36;;;;;;;;;;;;;;;6.46;100.00;95584.99;107292;1295;24285;-87
2024/03/04 06:24:03;;;;;;;;;;;;;;;6.55;100.00;95583.98;107325;1298;22553;-87
2024/03/04 06:26:30;;;;;;;;;;;;;;;6.72;100.00;95585.81;107200;1292;25424;-87
2024/03/04 06:28:57;;;;;;;;;;;;;;;6.78;100.00;95583.55;107306;1298;22515;-88
2024/03/04 06:31:23;;;;;;;;;;;;;;;6.82;100.00;95581.55;107237;1297;22541;-87
2024/03/04 06:33:50;;;;;;;;;;;;;;;6.85;100.00;95586.14;107284;1297;22536;-88
2024/03/04 06:36:16;;;;;;;;;;;;;;;6.85;100.00;95584.08;107210;1298;23305;-87
2024/03/04 06:38:43;;;;;;;;;;;;;;;6.96;100.00;95588.85;107254;1297;22524;-88
2024/03/04 06:41:09;;;;;;;;;;;;;;;7.01;100.00;95586.78;107213;1290;24189;-88
2024/03/04 06:43:36;;;;;;;;;;;;;;;6.99;100.00;95588.50;107122;1292;24202;-87
2024/03/04 06:46:02;;;;;;;;;;;;;;;6.99;100.00;95589.02;107298;1292;22601;-88
2024/03/04 06:48:29;;;;;;;;;;;;;;;7.02;100.00;95593.75;107474;1292;23988;-87
2024/03/04 06:50:56;;;;;;;;;;;;;;;7.09;100.00;95592.62;107234;1292;22549;-88
2024/03/04 06:53:22;;;;;;;;;;;;;;;7.29;100.00;95598.77;107130;1298;22718;-88
2024/03/04 06:55:49;;;;;;;;;;;;;;;7.42;100.00;95597.39;107158;1292;22519;-87
2024/03/04 06:58:15;;;;;;;;;;;;;;;7.51;100.00;95593.95;108509;1298;22478;-89
2024/03/04 07:00:42;;;;;;;;;;;;;;;7.53;100.00;95594.18;108545;1292;22466;-88
2024/03/04 07:03:08;;;;;;;;;;;;;;;7.53;100.00;95593.43;108604;1293;23061;-86
2024/03/04 07:05:35;;;;;;;;;;;;;;;7.59;100.00;95594.91;108485;1295;22475;-86
2024/03/04 07:08:02;;;;;;;;;;;;;;;7.67;100.00;95594.89;108499;1293;22491;-86
2024/03/04 07:10:28;;;;;;;;;;;;;;;7.84;100.00;95596.50;108428;1295;22740;-86
2024/03/04 07:12:55;;;;;;;;;;;;;;;7.98;99.96;95595.04;108455;1292;22454;-86
2024/03/04 07:15:22;;;;;;;;;;;;;;;8.08;100.00;95600.55;108576;1282;22536;-86
2024/03/04 07:17:48;;;;;;;;;;;;;;;8.13;99.83;95605.45;107315;1297;22532;-88
2024/03/04 07:20:15;;;;;;;;;;;;;;;8.16;99.80;95606.33;107163;1289;24506;-88
2024/03/04 07:22:42;;;;;;;;;;;;;;;8.20;99.79;95608.59;108476;1298;22493;-88
2024/03/04 07:25:08;;;;;;;;;;;;;;;8.22;99.56;95610.91;108506;1295;22447;-86
2024/03/04 07:27:35;;;;;;;;;;;;;;;8.23;99.05;95607.77;108478;1298;22449;-86
2024/03/04 07:30:02;;;;;;;;;;;;;;;8.21;99.69;95610.70;108564;1292;22472;-86
2024/03/04 07:32:29;;;;;;;;;;;;;;;8.17;99.77;95612.11;108546;1293;22533;-86
2024/03/04 07:34:55;;;;;;;;;;;;;;;8.15;99.69;95610.90;108668;1292;22456;-87
2024/03/04 07:37:22;;;;;;;;;;;;;;;8.16;99.53;95609.71;108646;1292;22444;-86
2024/03/04 07:39:49;;;;;;;;;;;;;;;8.19;99.42;95613.23;108564;1292;22401;-87
2024/03/04 07:42:15;;;;;;;;;;;;;;;8.26;99.08;95605.41;108492;1289;22553;-86
2024/03/04 07:44:42;;;;;;;;;;;;;;;8.35;99.31;95611.77;108551;1296;23230;-86
2024/03/04 07:47:08;;;;;;;;;;;;;;;8.39;99.62;95615.07;108469;1293;22443;-86
2024/03/04 07:49:35;;;;;;;;;;;;;;;8.41;99.54;95616.20;108538;1294;22448;-86
2024/03/04 07:52:01;;;;;;;;;;;;;;;8.56;98.15;95618.36;107445;1298;22579;-86
2024/03/04 07:54:28;;;;;;;;;;;;;;;8.70;98.97;95625.52;107204;1292;22565;-88
2024/03/04 07:56:54;;;;;;;;;;;;;;;8.81;97.71;95625.40;107171;1297;22528;-88
2024/03/04 07:59:21;;;;;;;;;;;;;;;9.00;98.37;95620.81;107119;1298;22624;-88
2024/03/04 08:01:50;;;;;;;;;;;;;;;9.11;98.54;95631.24;107303;1290;22565;-88
2024/03/04 08:04:17;;;;;;;;;;;;;;;9.13;98.32;95627.13;107125;1296;22528;-88
2024/03/04 08:06:43;;;;;;;;;;;;;;;9.16;98.57;95628.57;107312;1293;24330;-88
2024/03/04 08:09:14;;;;;;;;;;;;;;;9.20;97.51;95625.59;107191;1292;22520;-88
2024/03/04 08:11:40;;;;;;;;;;;;;;;9.34;97.68;95632.33;107232;1297;23777;-88
2024/03/04 08:14:07;;;;;;;;;;;;;;;9.43;96.00;95624.08;107223;1292;22529;-88
2024/03/04 08:16:33;;;;;;;;;;;;;;;9.55;95.59;95625.40;107242;1292;22538;-88
2024/03/04 08:19:01;;;;;;;;;;;;;;;9.66;95.69;95627.52;107386;1298;22542;-87
2024/03/04 08:21:27;;;;;;;;;;;;;;;9.76;95.61;95623.85;107359;1292;22596;-88
2024/03/04 08:23:54;;;;;;;;;;;;;;;9.85;94.63;95623.98;107411;1298;22537;-88
2024/03/04 08:26:21;;;;;;;;;;;;;;;9.94;94.17;95621.39;107267;1297;22511;-88
2024/03/04 08:28:48;;;;;;;;;;;;;;;10.04;93.88;95623.36;107222;1296;22573;-88
2024/03/04 08:31:17;;;;;;;;;;;;;;;10.17;93.52;95621.31;107219;1292;22482;-89
2024/03/04 08:33:44;;;;;;;;;;;;;;;10.28;92.66;95619.45;107196;1296;22514;-88
2024/03/04 08:36:11;;;;;;;;;;;;;;;10.41;92.48;95618.77;107141;1297;22476;-88
2024/03/04 08:38:37;;;;;;;;;;;;;;;10.54;91.67;95619.66;107412;1297;22624;-88
2024/03/04 08:41:04;;;;;;;;;;;;;;;10.68;91.51;95617.17;107243;1297;22527;-89
2024/03/04 08:43:31;;;;;;;;;;;;;;;10.77;91.08;95619.23;107263;1298;22535;-89
2024/03/04 08:45:58;;;;;;;;;;;;;;;10.89;90.76;95622.48;107359;1298;23235;-88
2024/03/04 08:48:24;;;;;;;;;;;;;;;11.00;89.23;95623.76;107215;1297;22505;-88
2024/03/04 08:50:51;;;;;;;;;;;;;;;11.11;88.95;95619.81;107362;1297;22512;-88
2024/03/04 08:53:17;;;;;;;;;;;;;;;11.20;87.71;95620.39;107259;1297;22543;-88
2024/03/04 08:55:44;;;;;;;;;;;;;;;11.27;88.08;95616.02;107510;1296;22504;-89
2024/03/04 08:58:10;;;;;;;;;;;;;;;11.34;87.09;95618.30;108668;1291;22459;-87
2024/03/04 09:00:37;;;;;;;;;;;;;;;11.43;87.40;95616.97;108650;1297;23165;-87
2024/03/04 09:03:05;;;;;;;;;;;;;;;11.53;86.46;95613.68;108634;1292;22439;-86
2024/03/04 09:05:33;;;;;;;;;;;;;;;11.63;85.00;95612.02;108567;1292;22437;-87
2024/03/04 09:08:02;;;;;;;;;;;;;;;11.74;85.87;95616.02;108710;1282;22440;-86
2024/03/04 09:10:29;;;;;;;;;;;;;;;11.81;85.85;95614.23;108543;1292;23103;-87
2024/03/04 09:12:56;;;;;;;;;;;;;;;11.88;84.36;95619.42;108519;1289;22446;-87
2024/03/04 09:15:23;;;;;;;;;;;;;;;11.94;83.83;95616.06;108428;1298;22589;-86
2024/03/04 09:17:49;;;;;;;;;;;;;;;11.99;83.02;95621.88;108401;1292;22599;-86
2024/03/04 09:20:17;;;;;;;;;;;;;;;12.08;82.39;95620.36;108370;1292;191057;-86
2024/03/04 09:22:44;;;;;;;;;;;;;;;12.13;83.14;95612.14;108482;1292;22536;-86
2024/03/04 09:25:11;;;;;;;;;;;;;;;12.17;83.07;95619.40;108783;1292;22451;-87
2024/03/04 09:27:37;;;;;;;;;;;;;;;12.18;82.07;95616.83;108657;1290;23197;-86
2024/03/04 09:30:07;;;;;;;;;;;;;;;12.21;82.26;95615.23;108570;1292;22414;-87
2024/03/04 09:32:33;;;;;;;;;;;;;;;12.24;82.28;95621.58;107618;1297;23316;-86
2024/03/04 09:35:00;;;;;;;;;;;;;;;12.25;82.13;95629.95;107319;1295;22525;-86
2024/03/04 09:37:26;;;;;;;;;;;;;;;12.25;81.69;95626.38;108391;1295;23573;-86
2024/03/04 09:39:53;;;;;;;;;;;;;;;12.28;80.86;95621.27;108523;1298;22508;-87
2024/03/04 09:42:19;;;;;;;;;;;;;;;12.36;79.93;95625.55;108642;1296;23196;-87
2024/03/04 09:44:46;;;;;;;;;;;;;;;12.40;80.03;95628.61;108730;1290;23528;-87
2024/03/04 09:47:13;;;;;;;;;;;;;;;12.43;80.38;95623.58;108626;1297;22462;-87
2024/03/04 09:49:39;;;;;;;;;;;;;;;12.45;80.23;95623.52;108518;1292;23087;-87
2024/03/04 09:52:06;;;;;;;;;;;;;;;12.48;79.82;95626.05;108500;1292;23321;-87
2024/03/04 09:54:35;;;;;;;;;;;;;;;12.53;79.37;95620.65;107496;1297;22547;-86
2024/03/04 09:57:02;;;;;;;;;;;;;;;12.57;78.36;95620.06;107783;1290;22521;-86
2024/03/04 09:59:30;;;;;;;;;;;;;;;12.60;78.84;95615.98;107403;1290;22478;-86
2024/03/04 10:01:58;;;;;;;;;;;;;;;12.71;78.81;95615.59;107297;1289;22552;-87
2024/03/04 10:04:25;;;;;;;;;;;;;;;12.80;78.69;95612.26;107203;1290;24224;-86
2024/03/04 10:06:52;;;;;;;;;;;;;;;12.96;77.34;95609.20;107260;1292;22714;-87
2024/03/04 10:09:18;;;;;;;;;;;;;;;13.08;77.69;95616.20;107323;1298;23273;-87
2024/03/04 10:11:45;;;;;;;;;;;;;;;13.16;76.14;95619.43;107285;1290;22525;-87
2024/03/04 10:14:12;;;;;;;;;;;;;;;13.21;76.40;95621.27;107349;1289;22555;-87
2024/03/04 10:16:39;;;;;;;;;;;;;;;13.24;75.58;95611.84;107299;1297;24727;-88
2024/03/04 10:19:08;;;;;;;;;;;;;;;13.27;74.79;95612.96;107170;1298;22520;-88
2024/03/04 10:21:35;;;;;;;;;;;;;;;13.37;76.05;95610.61;107208;1292;25220;-88
2024/03/04 10:24:08;;;;;;;;;;;;;;;13.50;74.44;95604.71;107284;1297;22690;-87
2024/03/04 10:26:44;;;;;;;;;;;;;;;13.69;74.38;95601.11;107223;1298;22523;-87
2024/03/04 10:29:12;;;;;;;;;;;;;;;13.80;71.25;95597.32;107213;1292;22514;-87
2024/03/04 10:31:49;;;;;;;;;;;;;;;13.86;70.07;95606.95;107290;1298;24167;-87
2024/03/04 10:34:15;;;;;;;;;;;;;;;13.88;69.00;95605.63;107187;1297;22586;-87
2024/03/04 10:36:42;;;;;;;;;;;;;;;13.85;67.67;95603.46;107185;1292;25220;-87
2024/03/04 10:39:17;;;;;;;;;;;;;;;13.81;67.89;95604.05;107109;1298;22556;-87
2024/03/04 10:41:46;;;;;;;;;;;;;;;13.79;68.87;95598.85;107181;1297;22529;-87
2024/03/04 10:44:23;;;;;;;;;;;;;;;13.81;69.53;95603.77;107160;1279;22530;-87
2024/03/04 10:46:50;;;;;;;;;;;;;;;13.88;69.10;95596.66;107174;1292;22530;-87
2024/03/04 10:49:17;;;;;;;;;;;;;;;13.94;67.79;95597.02;107154;1298;23225;-87
2024/03/04 10:51:43;;;;;;;;;;;;;;;14.02;67.37;95599.58;107158;1294;23380;-86
2024/03/04 10:54:10;;;;;;;;;;;;;;;14.06;68.23;95599.31;107298;1298;22558;-87
2024/03/04 10:56:36;;;;;;;;;;;;;;;14.19;68.08;95595.36;107121;1291;24243;-87
2024/03/04 10:59:04;;;;;;;;;;;;;;;14.27;67.06;95596.08;107295;1290;24295;-86
2024/03/04 11:01:31;;;;;;;;;;;;;;;14.35;66.86;95597.17;107186;1293;22567;-87
2024/03/04 11:03:57;;;;;;;;;;;;;;;14.48;66.27;95594.63;107419;1290;22553;-87
2024/03/04 11:06:24;;;;;;;;;;;;;;;14.55;64.45;95598.79;107419;1282;22504;-88
2024/03/04 11:08:59;;;;;;;;;;;;;;;14.51;64.48;95596.61;107172;1293;22562;-87
2024/03/04 11:11:28;;;;;;;;;;;;;;;14.42;64.83;95602.70;107142;1298;24967;-87
2024/03/04 11:13:58;;;;;;;;;;;;;;;14.34;63.84;95603.13;107144;1294;22636;-87
2024/03/04 11:16:24;;;;;;;;;;;;;;;14.34;64.07;95602.02;107141;1295;22520;-87
2024/03/04 11:19:11;;;;;;;;;;;;;;;14.35;64.45;95602.48;107383;1297;22826;-87
2024/03/04 11:21:39;;;;;;;;;;;;;;;14.33;64.31;95600.54;107383;1291;22558;-87
2024/03/04 11:24:08;;;;;;;;;;;;;;;14.28;64.02;95596.14;107112;1293;22517;-87
2024/03/04 11:26:36;;;;;;;;;;;;;;;14.26;64.92;95597.83;107185;1288;23899;-86
2024/03/04 11:29:02;;;;;;;;;;;;;;;14.23;63.62;95591.39;107199;1298;25233;-87
2024/03/04 11:31:29;;;;;;;;;;;;;;;14.22;64.67;95595.23;107134;1292;22540;-86
2024/03/04 11:34:03;;;;;;;;;;;;;;;14.24;65.20;95592.91;107214;1297;24288;-87
2024/03/04 11:36:30;;;;;;;;;;;;;;;14.26;65.33;95588.01;107186;1297;24201;-87
2024/03/04 11:38:59;;;;;;;;;;;;;;;14.25;65.49;95584.44;107151;1298;24186;-87
2024/03/04 11:41:52;;;;;;;;;;;;;;;14.22;65.47;95585.66;107472;1298;22530;-87
2024/03/04 11:44:19;;;;;;;;;;;;;;;14.18;65.15;95586.73;107380;1297;22553;-87
2024/03/04 11:46:46;;;;;;;;;;;;;;;14.17;64.38;95586.44;107195;1297;25081;-87
2024/03/04 11:49:22;;;;;;;;;;;;;;;14.15;64.94;95583.30;107333;1298;22509;-86
2024/03/04 11:52:05;;;;;;;;;;;;;;;14.15;65.24;95584.76;107212;1298;24272;-86
2024/03/04 11:54:34;;;;;;;;;;;;;;;14.14;65.49;95577.40;107277;1296;25226;-87
2024/03/04 11:57:03;;;;;;;;;;;;;;;14.13;65.37;95580.15;107413;1298;24196;-87
2024/03/04 11:59:29;;;;;;;;;;;;;;;14.10;65.38;95579.79;107499;1292;22524;-87
2024/03/04 12:01:56;;;;;;;;;;;;;;;14.08;65.18;95582.64;107407;1298;23677;-87
2024/03/04 12:04:24;;;;;;;;;;;;;;;14.06;65.59;95583.55;107231;1297;22623;-86
2024/03/04 12:06:50;;;;;;;;;;;;;;;14.05;65.61;95585.34;107359;1291;22559;-86
2024/03/04 12:09:17;;;;;;;;;;;;;;;14.05;65.55;95584.95;107109;1295;22608;-86
2024/03/04 12:11:43;;;;;;;;;;;;;;;14.05;65.85;95585.09;107441;1297;22691;-86
2024/03/04 12:14:10;;;;;;;;;;;;;;;14.07;65.83;95580.33;107163;1295;24225;-86
2024/03/04 12:16:40;;;;;;;;;;;;;;;14.07;65.41;95577.71;107145;1292;22521;-87
2024/03/04 12:19:08;;;;;;;;;;;;;;;14.11;65.80;95579.42;107086;1292;25394;-86
2024/03/04 12:21:35;;;;;;;;;;;;;;;14.17;65.63;95577.50;107218;1298;22503;-87
2024/03/04 12:24:02;;;;;;;;;;;;;;;14.21;65.41;95579.80;107195;1292;25710;-87
2024/03/04 12:26:29;;;;;;;;;;;;;;;14.22;64.90;95579.35;107169;1297;22667;-87
2024/03/04 12:29:08;;;;;;;;;;;;;;;14.22;65.05;95575.21;107117;1298;23301;-87
2024/03/04 12:31:37;;;;;;;;;;;;;;;14.21;65.47;95575.30;107197;1298;25395;-87
2024/03/04 12:34:04;;;;;;;;;;;;;;;14.20;66.31;95571.39;107175;1298;22515;-87
2024/03/04 12:36:31;;;;;;;;;;;;;;;14.18;66.17;95572.03;107085;1298;22518;-87
2024/03/04 12:38:58;;;;;;;;;;;;;;;14.17;64.92;95565.96;107168;1297;22524;-87
2024/03/04 12:41:24;;;;;;;;;;;;;;;14.18;64.37;95563.02;107476;1298;22562;-87